Cosco Tengfei — HPMO — position and weather

sailwx.info

Track history (hours):
 
Tides and Currents Weather Stations Pressure Air Temp Water Temp Dewpoint Dewpoint Depression Visibility Wind Speed Wind Dir Waves Ship Positions

Cosco Tengfei

Last reported at 2017-Jul-07 16:34 UTC. Time now 2017-Aug-17 11:43 UTC.
Position S 28°13' E 033°15'.
Warning: this ship's position is 40 days out of date.

Length 183 m; draft 8.9 m.

Type: Cargo ship. MMSI: 355518000.

Date/timePositionNaut miles runAvg speedWind from/ knotsBaromVisibWave heightAir tempDewpointWater temp
2017-Jul-07 16:34S 28°13' E 033°15'4813.3
2017-Jul-07 12:59S 28°46' E 032°36'613.3
2017-Jul-07 12:30S 28°50' E 032°31'713.4
2017-Jul-07 12:00S 28°55' E 032°25'714.2
2017-Jul-07 11:30S 28°60' E 032°19'714.3
2017-Jul-07 11:00S 29°04' E 032°13'714.5
2017-Jul-07 10:30S 29°09' E 032°06'714.6
2017-Jul-07 10:00S 29°14' E 032°00'714.7
2017-Jul-07 09:30S 29°19' E 031°54'714.7
2017-Jul-07 09:00S 29°24' E 031°48'714.7
2017-Jul-07 08:30S 29°29' E 031°41'815.1
2017-Jul-07 08:00S 29°34' E 031°35'715.0
2017-Jul-07 07:30S 29°39' E 031°29'714.9
2017-Jul-07 07:00S 29°43' E 031°22'815.1
2017-Jul-07 06:30S 29°47' E 031°15'815.1
2017-Jul-07 06:00S 29°50' E 031°07'4 8.7
2017-Jul-07 05:30S 29°53' E 031°03'1 1.2
2017-Jul-07 05:00S 29°52' E 031°02'0 0.0
2017-Jul-07 04:30S 29°52' E 031°02'0 0.0
2017-Jul-07 04:00S 29°52' E 031°02'0 0.0
2017-Jul-07 03:30S 29°52' E 031°02'0 0.0
2017-Jul-07 03:00S 29°52' E 031°02'0 0.0
2017-Jul-07 02:30S 29°52' E 031°02'0 0.0
2017-Jul-07 02:00S 29°52' E 031°02'0 0.0
2017-Jul-07 01:30S 29°52' E 031°02'0 0.0
2017-Jul-07 01:01S 29°52' E 031°02'0 0.0
2017-Jul-07 00:30S 29°52' E 031°02'0 0.0
2017-Jul-07 00:01S 29°52' E 031°02'0 0.0
2017-Jul-06 23:30S 29°52' E 031°02'0 0.0
2017-Jul-06 23:16S 29°52' E 031°02'  
Track history (hours):
 
Tides and Currents Weather Stations Pressure Air Temp Water Temp Dewpoint Dewpoint Depression Visibility Wind Speed Wind Dir Waves Ship Positions

Cosco Tengfei

Last reported at 2017-Jul-07 16:34 UTC. Time now 2017-Aug-17 11:43 UTC.
Position S 28°13' E 033°15'.
Warning: this ship's position is 40 days out of date.

Length 183 m; draft 8.9 m.

Type: Cargo ship. MMSI: 355518000.

Date/timePositionNaut miles runAvg speedWind from/ knotsBaromVisibWave heightAir tempDewpointWater temp
2017-Jul-07 16:34S 28°13' E 033°15'4813.3
2017-Jul-07 12:59S 28°46' E 032°36'613.3
2017-Jul-07 12:30S 28°50' E 032°31'713.4
2017-Jul-07 12:00S 28°55' E 032°25'714.2
2017-Jul-07 11:30S 28°60' E 032°19'714.3
2017-Jul-07 11:00S 29°04' E 032°13'714.5
2017-Jul-07 10:30S 29°09' E 032°06'714.6
2017-Jul-07 10:00S 29°14' E 032°00'714.7
2017-Jul-07 09:30S 29°19' E 031°54'714.7
2017-Jul-07 09:00S 29°24' E 031°48'714.7
2017-Jul-07 08:30S 29°29' E 031°41'815.1
2017-Jul-07 08:00S 29°34' E 031°35'715.0
2017-Jul-07 07:30S 29°39' E 031°29'714.9
2017-Jul-07 07:00S 29°43' E 031°22'815.1
2017-Jul-07 06:30S 29°47' E 031°15'815.1
2017-Jul-07 06:00S 29°50' E 031°07'4 8.7
2017-Jul-07 05:30S 29°53' E 031°03'1 1.2
2017-Jul-07 05:00S 29°52' E 031°02'0 0.0
2017-Jul-07 04:30S 29°52' E 031°02'0 0.0
2017-Jul-07 04:00S 29°52' E 031°02'0 0.0
2017-Jul-07 03:30S 29°52' E 031°02'0 0.0
2017-Jul-07 03:00S 29°52' E 031°02'0 0.0
2017-Jul-07 02:30S 29°52' E 031°02'0 0.0
2017-Jul-07 02:00S 29°52' E 031°02'0 0.0
2017-Jul-07 01:30S 29°52' E 031°02'0 0.0
2017-Jul-07 01:01S 29°52' E 031°02'0 0.0
2017-Jul-07 00:30S 29°52' E 031°02'0 0.0
2017-Jul-07 00:01S 29°52' E 031°02'0 0.0
2017-Jul-06 23:30S 29°52' E 031°02'0 0.0
2017-Jul-06 23:16S 29°52' E 031°02'  

Dump ship's entire track history